createdAt,value
2023-05-19T00:00:06.997Z,91.20
2023-05-19T00:02:57.441Z,91.20
2023-05-19T00:05:46.082Z,91.20
2023-05-19T00:08:33.226Z,91.10
2023-05-19T00:11:19.495Z,91.20
2023-05-19T00:14:08.458Z,91.30
2023-05-19T00:16:56.126Z,91.40
2023-05-19T00:19:45.058Z,91.50
2023-05-19T00:22:31.110Z,91.40
2023-05-19T00:25:17.248Z,91.40
2023-05-19T00:28:03.742Z,91.40
2023-05-19T00:30:51.853Z,91.40
2023-05-19T00:33:38.354Z,91.40
2023-05-19T00:36:24.979Z,91.50
2023-05-19T00:39:11.246Z,91.60
2023-05-19T00:41:57.568Z,91.70
2023-05-19T00:44:44.271Z,91.60
2023-05-19T00:47:31.012Z,91.70
2023-05-19T00:50:17.487Z,91.70
2023-05-19T00:53:04.046Z,91.90
2023-05-19T00:55:50.904Z,92.10
2023-05-19T00:58:37.230Z,92.10
2023-05-19T01:01:23.824Z,92.20
2023-05-19T01:04:11.383Z,92.50
2023-05-19T01:06:57.889Z,92.20
2023-05-19T01:09:44.983Z,92.40
2023-05-19T01:12:31.208Z,92.40
2023-05-19T01:15:17.502Z,92.50
2023-05-19T01:18:14.134Z,92.60
2023-05-19T01:21:16.023Z,92.60
2023-05-19T01:24:14.512Z,92.50
2023-05-19T01:27:18.032Z,92.80
2023-05-19T01:30:23.326Z,92.80
2023-05-19T01:33:15.858Z,93.20
2023-05-19T01:36:04.021Z,93.10
2023-05-19T01:38:57.081Z,93.10
2023-05-19T01:41:45.620Z,93.30
2023-05-19T01:44:32.960Z,93.20
2023-05-19T01:47:19.753Z,93.40
2023-05-19T01:50:07.235Z,93.30
2023-05-19T01:52:53.704Z,93.30
2023-05-19T01:55:47.995Z,93.30
2023-05-19T01:58:50.232Z,93.70
2023-05-19T02:01:57.316Z,93.40
2023-05-19T02:04:51.144Z,94.00
2023-05-19T02:07:58.130Z,93.90
2023-05-19T02:10:50.604Z,93.60
2023-05-19T02:13:40.822Z,93.70
2023-05-19T02:16:28.980Z,93.90
2023-05-19T02:19:30.973Z,93.80
2023-05-19T02:22:17.478Z,94.00
2023-05-19T02:25:04.123Z,94.00
2023-05-19T02:27:53.098Z,93.90
2023-05-19T02:30:38.962Z,94.00
2023-05-19T02:33:26.111Z,94.10
2023-05-19T02:36:14.478Z,94.00
2023-05-19T02:39:01.779Z,94.30
2023-05-19T02:41:48.565Z,94.20
2023-05-19T02:44:35.173Z,94.40
2023-05-19T02:47:21.245Z,94.40
2023-05-19T02:50:08.146Z,94.20
2023-05-19T02:52:54.280Z,94.40
2023-05-19T02:55:40.180Z,94.40
2023-05-19T02:58:26.157Z,94.20
2023-05-19T03:01:12.181Z,94.10
2023-05-19T03:03:58.482Z,94.30
2023-05-19T03:06:45.251Z,94.40
2023-05-19T03:09:31.349Z,94.30
2023-05-19T03:12:17.341Z,94.60
2023-05-19T03:15:03.464Z,94.50
2023-05-19T03:17:50.011Z,94.60
2023-05-19T03:20:36.551Z,94.50
2023-05-19T03:23:22.610Z,94.70
2023-05-19T03:26:08.798Z,94.50
2023-05-19T03:28:55.690Z,94.70
2023-05-19T03:31:42.168Z,94.80
2023-05-19T03:34:28.247Z,94.70
2023-05-19T03:37:15.849Z,94.70
2023-05-19T03:40:02.118Z,94.80
2023-05-19T03:42:48.775Z,94.90
2023-05-19T03:45:36.589Z,94.90
2023-05-19T03:48:36.057Z,95.00
2023-05-19T03:51:39.419Z,95.10
2023-05-19T03:54:39.697Z,94.90
2023-05-19T03:57:25.708Z,95.40
2023-05-19T04:00:13.873Z,95.30
2023-05-19T04:03:00.617Z,95.40
2023-05-19T04:05:46.959Z,95.30
2023-05-19T04:08:34.557Z,95.30
2023-05-19T04:11:22.258Z,95.30
2023-05-19T04:14:09.112Z,95.40
2023-05-19T04:16:56.175Z,95.30
2023-05-19T04:19:42.563Z,95.40
2023-05-19T04:22:28.592Z,95.30
2023-05-19T04:25:14.984Z,95.30
2023-05-19T04:28:01.239Z,95.10
2023-05-19T04:30:47.721Z,95.30
2023-05-19T04:33:34.179Z,95.60
2023-05-19T04:36:21.827Z,95.30
2023-05-19T04:39:12.307Z,95.40
2023-05-19T04:42:02.639Z,95.70
2023-05-19T04:44:51.704Z,95.40
2023-05-19T04:47:38.906Z,95.30
2023-05-19T04:50:25.411Z,95.30
2023-05-19T04:53:12.313Z,95.50
2023-05-19T04:56:00.850Z,95.40
2023-05-19T04:58:47.659Z,95.40
2023-05-19T05:01:34.107Z,95.50
2023-05-19T05:04:21.752Z,95.40
2023-05-19T05:07:08.199Z,95.30
2023-05-19T05:09:56.981Z,95.40
2023-05-19T05:12:43.528Z,95.30
2023-05-19T05:15:29.971Z,95.30
2023-05-19T05:18:19.468Z,95.20
2023-05-19T05:21:07.104Z,95.10
2023-05-19T05:23:54.495Z,95.30
2023-05-19T05:26:45.005Z,95.10
2023-05-19T05:29:31.267Z,95.40
2023-05-19T05:32:17.696Z,95.10
2023-05-19T05:35:04.376Z,95.20
2023-05-19T05:37:51.296Z,95.10
2023-05-19T05:40:37.771Z,94.90
2023-05-19T05:43:24.616Z,94.90
2023-05-19T05:46:17.263Z,95.10
2023-05-19T05:49:03.434Z,94.90
2023-05-19T05:52:04.389Z,94.40
2023-05-19T05:54:55.362Z,94.20
2023-05-19T05:57:42.350Z,94.30
2023-05-19T06:00:29.922Z,94.10
2023-05-19T06:03:16.955Z,94.20
2023-05-19T06:06:04.106Z,93.80
2023-05-19T06:08:50.548Z,93.60
2023-05-19T06:11:37.724Z,93.30
2023-05-19T06:14:24.612Z,93.50
2023-05-19T06:17:29.387Z,93.10
2023-05-19T06:20:18.255Z,93.10
2023-05-19T06:23:04.684Z,93.40
2023-05-19T06:25:50.716Z,93.10
2023-05-19T06:28:36.683Z,92.70
2023-05-19T06:31:23.254Z,92.70
2023-05-19T06:34:14.878Z,92.80
2023-05-19T06:37:02.469Z,93.10
2023-05-19T06:39:54.213Z,92.70
2023-05-19T06:42:40.429Z,92.80
2023-05-19T06:45:35.071Z,92.60
2023-05-19T06:48:23.224Z,92.60
2023-05-19T06:51:10.306Z,92.50
2023-05-19T06:53:58.505Z,92.20
2023-05-19T06:56:45.233Z,92.10
2023-05-19T06:59:31.095Z,92.00
2023-05-19T07:02:18.608Z,92.30
2023-05-19T07:05:05.401Z,91.60
2023-05-19T07:07:51.578Z,91.30
2023-05-19T07:10:41.468Z,91.10
2023-05-19T07:13:32.975Z,91.00
2023-05-19T07:16:19.486Z,90.90
2023-05-19T07:19:05.724Z,91.20
2023-05-19T07:21:52.876Z,91.20
2023-05-19T07:24:39.256Z,90.50
2023-05-19T07:27:25.642Z,90.20
2023-05-19T07:30:12.234Z,90.00
2023-05-19T07:32:58.560Z,90.20
2023-05-19T07:35:45.672Z,90.30
2023-05-19T07:38:34.497Z,89.80
2023-05-19T07:41:21.804Z,88.90
2023-05-19T07:44:08.387Z,88.40
2023-05-19T07:46:55.227Z,88.90
2023-05-19T07:49:41.456Z,88.40
2023-05-19T07:52:27.457Z,87.60
2023-05-19T07:55:13.642Z,87.50
2023-05-19T07:57:59.803Z,87.30
2023-05-19T08:00:46.118Z,87.10
2023-05-19T08:03:32.464Z,87.90
2023-05-19T08:06:18.768Z,87.20
2023-05-19T08:09:05.481Z,86.50
2023-05-19T08:11:51.854Z,86.20
2023-05-19T08:14:38.115Z,86.50
2023-05-19T08:17:24.264Z,86.70
2023-05-19T08:20:10.521Z,85.80
2023-05-19T08:22:56.463Z,84.40
2023-05-19T08:25:42.671Z,84.00
2023-05-19T08:28:29.036Z,83.30
2023-05-19T08:31:15.097Z,83.70
2023-05-19T08:34:00.985Z,83.10
2023-05-19T08:36:47.701Z,84.50
2023-05-19T08:39:34.861Z,84.40
2023-05-19T08:42:20.859Z,84.60
2023-05-19T08:45:07.410Z,85.50
2023-05-19T08:47:53.777Z,85.80
2023-05-19T08:50:42.587Z,86.40
2023-05-19T08:53:37.741Z,86.50
2023-05-19T08:56:24.939Z,86.80
2023-05-19T08:59:13.413Z,87.60
2023-05-19T09:01:59.998Z,87.30
2023-05-19T09:04:48.059Z,86.30
2023-05-19T09:07:37.845Z,86.60
2023-05-19T09:10:24.791Z,87.40
2023-05-19T09:13:11.262Z,87.70
2023-05-19T09:15:58.182Z,87.20
2023-05-19T09:18:57.806Z,87.20
2023-05-19T09:21:45.876Z,86.90
2023-05-19T09:24:33.869Z,87.30
2023-05-19T09:27:26.332Z,86.80
2023-05-19T09:30:12.661Z,86.50
2023-05-19T09:32:58.967Z,86.00
2023-05-19T09:35:47.272Z,85.20
2023-05-19T09:38:33.649Z,84.90
2023-05-19T09:41:20.253Z,85.20
2023-05-19T09:44:07.442Z,85.30
2023-05-19T09:46:53.880Z,84.60
2023-05-19T09:49:47.691Z,84.00
2023-05-19T09:52:43.631Z,84.60
2023-05-19T09:55:30.562Z,84.40
2023-05-19T09:58:18.910Z,85.40
2023-05-19T10:01:06.662Z,84.10
2023-05-19T10:03:53.573Z,85.00
2023-05-19T10:06:40.203Z,84.10
2023-05-19T10:09:28.513Z,83.90
2023-05-19T10:12:15.421Z,84.70
2023-05-19T10:15:02.662Z,83.80
2023-05-19T10:17:50.626Z,85.30
2023-05-19T10:20:37.466Z,83.70
2023-05-19T10:23:24.050Z,83.60
2023-05-19T10:26:10.468Z,84.50
2023-05-19T10:28:57.254Z,83.70
2023-05-19T10:31:45.890Z,84.20
2023-05-19T10:34:57.163Z,82.80
2023-05-19T10:38:00.561Z,83.20
2023-05-19T10:41:24.348Z,84.20
2023-05-19T10:44:16.669Z,85.30
2023-05-19T10:47:06.143Z,84.90
2023-05-19T10:49:53.813Z,84.60
2023-05-19T10:52:40.527Z,85.60
2023-05-19T10:55:52.928Z,85.00
2023-05-19T10:58:48.985Z,85.10
2023-05-19T11:01:36.518Z,84.70
2023-05-19T11:04:51.900Z,83.90
2023-05-19T11:07:42.284Z,84.90
2023-05-19T11:10:28.691Z,83.80
2023-05-19T11:13:22.635Z,84.20
2023-05-19T11:16:09.674Z,84.40
2023-05-19T11:18:58.726Z,83.40
2023-05-19T11:21:50.878Z,84.50
2023-05-19T11:24:44.478Z,84.50
2023-05-19T11:27:38.165Z,84.50
2023-05-19T11:30:25.169Z,84.80
2023-05-19T11:33:11.697Z,84.30
2023-05-19T11:35:58.541Z,83.60
2023-05-19T11:38:45.116Z,83.40
2023-05-19T11:41:31.299Z,83.20
2023-05-19T11:44:17.126Z,83.00
2023-05-19T11:47:04.423Z,82.70
2023-05-19T11:49:57.798Z,82.70
2023-05-19T11:52:47.561Z,83.20
2023-05-19T11:55:33.672Z,83.00
2023-05-19T11:58:27.218Z,83.70
2023-05-19T12:01:13.933Z,83.90
2023-05-19T12:04:00.722Z,84.10
2023-05-19T12:06:49.590Z,83.70
2023-05-19T12:09:35.815Z,84.30
2023-05-19T12:12:23.218Z,84.20
2023-05-19T12:15:10.339Z,84.10
2023-05-19T12:18:01.419Z,85.60
2023-05-19T12:20:48.151Z,84.10
2023-05-19T12:23:35.275Z,84.20
2023-05-19T12:26:22.454Z,85.70
2023-05-19T12:29:08.259Z,86.20
2023-05-19T12:31:54.381Z,85.80
2023-05-19T12:34:41.636Z,86.40
2023-05-19T12:37:29.949Z,86.50
2023-05-19T12:40:17.113Z,86.30
2023-05-19T12:43:03.427Z,86.50
2023-05-19T12:45:49.747Z,85.90
2023-05-19T12:48:39.707Z,84.20
2023-05-19T12:51:25.969Z,84.40
2023-05-19T12:54:12.071Z,84.30
2023-05-19T12:56:59.185Z,84.40
2023-05-19T12:59:47.195Z,84.30
2023-05-19T13:02:36.284Z,84.90
2023-05-19T13:05:23.045Z,84.80
2023-05-19T13:08:11.303Z,83.00
2023-05-19T13:10:57.658Z,82.40
2023-05-19T13:13:43.870Z,82.60
2023-05-19T13:16:30.138Z,81.00
2023-05-19T13:19:25.247Z,79.80
2023-05-19T13:22:12.028Z,78.90
2023-05-19T13:25:02.245Z,79.10
2023-05-19T13:27:48.752Z,79.10
2023-05-19T13:30:36.793Z,79.90
2023-05-19T13:33:23.047Z,78.70
2023-05-19T13:36:09.042Z,78.70
2023-05-19T13:38:55.410Z,77.30
2023-05-19T13:41:41.584Z,77.20
2023-05-19T13:44:27.807Z,77.40
2023-05-19T13:47:13.845Z,77.50
2023-05-19T13:50:00.391Z,78.30
2023-05-19T13:52:46.385Z,78.80
2023-05-19T13:55:33.362Z,78.00
2023-05-19T13:58:19.369Z,78.50
2023-05-19T14:01:06.788Z,78.90
2023-05-19T14:03:54.863Z,78.60
2023-05-19T14:06:41.267Z,78.90
2023-05-19T14:09:29.219Z,79.70
2023-05-19T14:12:15.801Z,78.70
2023-05-19T14:15:02.396Z,78.80
2023-05-19T14:17:50.342Z,78.90
2023-05-19T14:20:36.471Z,80.10
2023-05-19T14:23:22.894Z,79.50
2023-05-19T14:26:08.911Z,80.10
2023-05-19T14:28:56.980Z,79.60
2023-05-19T14:31:43.466Z,79.60
2023-05-19T14:34:29.921Z,80.00
2023-05-19T14:37:16.128Z,79.90
2023-05-19T14:40:03.655Z,80.20
2023-05-19T14:42:49.916Z,80.50
2023-05-19T14:45:36.017Z,80.90
2023-05-19T14:48:22.347Z,81.10
2023-05-19T14:51:08.727Z,81.30
2023-05-19T14:53:55.363Z,81.60
2023-05-19T14:56:41.559Z,82.20
2023-05-19T14:59:28.061Z,81.60
2023-05-19T15:02:14.407Z,81.10
2023-05-19T15:05:00.965Z,80.90
2023-05-19T15:07:46.851Z,81.40
2023-05-19T15:10:33.669Z,81.60
2023-05-19T15:13:21.534Z,82.50
2023-05-19T15:16:17.352Z,82.00
2023-05-19T15:19:04.384Z,83.00
2023-05-19T15:21:50.959Z,82.80
2023-05-19T15:24:36.830Z,82.50
2023-05-19T15:27:23.196Z,83.10
2023-05-19T15:30:09.510Z,83.80
2023-05-19T15:32:55.506Z,83.30
2023-05-19T15:35:41.908Z,82.20
2023-05-19T15:38:29.873Z,82.70
2023-05-19T15:41:16.121Z,83.30
2023-05-19T15:44:02.771Z,83.60
2023-05-19T15:46:48.733Z,83.70
2023-05-19T15:49:34.992Z,83.30
2023-05-19T15:52:21.048Z,83.50
2023-05-19T15:55:08.216Z,83.90
2023-05-19T15:57:54.403Z,82.50
2023-05-19T16:00:40.386Z,84.70
2023-05-19T16:03:26.499Z,83.60
2023-05-19T16:06:12.665Z,83.50
2023-05-19T16:08:58.585Z,84.10
2023-05-19T16:11:44.396Z,82.80
2023-05-19T16:14:33.310Z,83.60
2023-05-19T16:17:19.145Z,83.50
2023-05-19T16:20:06.132Z,83.20
2023-05-19T16:22:52.291Z,83.30
2023-05-19T16:25:38.533Z,82.50
2023-05-19T16:28:25.259Z,82.50
2023-05-19T16:31:11.782Z,82.60
2023-05-19T16:33:57.974Z,83.50
2023-05-19T16:36:44.261Z,84.20
2023-05-19T16:39:30.354Z,84.40
2023-05-19T16:42:16.423Z,84.30
2023-05-19T16:45:03.187Z,84.70
2023-05-19T16:47:49.378Z,84.00
2023-05-19T16:50:35.503Z,84.60
2023-05-19T16:53:22.011Z,85.00
2023-05-19T16:56:08.405Z,85.20
2023-05-19T16:58:55.071Z,85.50
2023-05-19T17:01:41.814Z,84.50
2023-05-19T17:04:30.021Z,84.50
2023-05-19T17:07:17.488Z,84.10
2023-05-19T17:10:04.254Z,83.70
2023-05-19T17:12:50.626Z,84.20
2023-05-19T17:15:37.422Z,84.40
2023-05-19T17:18:23.675Z,84.30
2023-05-19T17:21:09.809Z,85.20
2023-05-19T17:23:56.515Z,85.50
2023-05-19T17:26:43.203Z,85.70
2023-05-19T17:29:29.714Z,85.80
2023-05-19T17:32:16.181Z,86.40
2023-05-19T17:35:06.703Z,86.40
2023-05-19T17:37:53.236Z,85.60
2023-05-19T17:40:41.942Z,85.80
2023-05-19T17:43:29.450Z,85.60
2023-05-19T17:46:15.708Z,86.70
2023-05-19T17:49:02.088Z,86.50
2023-05-19T17:51:48.359Z,86.20
2023-05-19T17:54:34.901Z,86.90
2023-05-19T17:57:22.977Z,86.50
2023-05-19T18:00:10.551Z,86.90
2023-05-19T18:02:57.451Z,87.40
2023-05-19T18:05:44.682Z,87.60
2023-05-19T18:08:32.324Z,87.10
2023-05-19T18:11:18.801Z,86.90
2023-05-19T18:14:04.950Z,87.00
2023-05-19T18:16:51.132Z,87.50
2023-05-19T18:19:37.391Z,87.80
2023-05-19T18:22:23.479Z,88.10
2023-05-19T18:25:09.847Z,88.80
2023-05-19T18:27:56.094Z,88.50
2023-05-19T18:30:43.742Z,88.90
2023-05-19T18:33:31.324Z,89.20
2023-05-19T18:36:17.830Z,89.40
2023-05-19T18:39:04.650Z,90.10
2023-05-19T18:41:50.840Z,90.30
2023-05-19T18:44:36.924Z,90.70
2023-05-19T18:47:23.197Z,90.80
2023-05-19T18:50:10.123Z,90.70
2023-05-19T18:52:56.434Z,91.00
2023-05-19T18:55:42.668Z,91.00
2023-05-19T18:58:28.823Z,91.00
2023-05-19T19:01:16.349Z,91.30
2023-05-19T19:04:03.443Z,91.30
2023-05-19T19:06:49.894Z,91.70
2023-05-19T19:09:35.801Z,91.50
2023-05-19T19:12:22.019Z,91.60
2023-05-19T19:15:08.945Z,91.60
2023-05-19T19:17:54.873Z,91.80
2023-05-19T19:20:41.040Z,91.90
2023-05-19T19:23:27.164Z,91.80
2023-05-19T19:26:13.193Z,91.80
2023-05-19T19:28:59.224Z,92.30
2023-05-19T19:31:45.173Z,92.30
2023-05-19T19:34:31.726Z,92.30
2023-05-19T19:37:18.003Z,92.80
2023-05-19T19:40:04.292Z,92.70
2023-05-19T19:42:50.899Z,92.20
2023-05-19T19:45:39.163Z,92.80
2023-05-19T19:48:25.234Z,92.60
2023-05-19T19:51:11.240Z,92.50
2023-05-19T19:53:57.471Z,92.50
2023-05-19T19:56:43.695Z,92.60
2023-05-19T19:59:30.568Z,92.70
2023-05-19T20:02:17.034Z,92.90
2023-05-19T20:05:04.308Z,93.00
2023-05-19T20:07:50.625Z,92.80
2023-05-19T20:10:36.640Z,93.30
2023-05-19T20:13:23.268Z,93.00
2023-05-19T20:16:09.673Z,92.80
2023-05-19T20:18:56.140Z,93.00
2023-05-19T20:21:42.352Z,93.20
2023-05-19T20:24:28.333Z,93.10
2023-05-19T20:27:14.237Z,93.10
2023-05-19T20:30:00.207Z,92.80
2023-05-19T20:32:46.613Z,92.60
2023-05-19T20:35:32.783Z,92.60
2023-05-19T20:38:19.155Z,92.50
2023-05-19T20:41:05.177Z,92.60
2023-05-19T20:43:51.196Z,92.60
2023-05-19T20:46:37.184Z,92.50
2023-05-19T20:49:23.045Z,92.60
2023-05-19T20:52:08.898Z,92.70
2023-05-19T20:54:54.968Z,92.50
2023-05-19T20:57:41.113Z,92.50
2023-05-19T21:00:29.621Z,92.70
2023-05-19T21:03:16.711Z,92.60
2023-05-19T21:06:03.197Z,92.60
2023-05-19T21:08:49.208Z,92.70
2023-05-19T21:11:35.548Z,92.50
2023-05-19T21:14:22.374Z,92.70
2023-05-19T21:17:08.448Z,92.70
2023-05-19T21:19:57.875Z,92.70
2023-05-19T21:22:44.183Z,92.90
2023-05-19T21:25:31.475Z,92.90
2023-05-19T21:28:18.004Z,92.70
2023-05-19T21:31:05.616Z,92.90
2023-05-19T21:33:51.845Z,93.00
2023-05-19T21:36:38.003Z,92.90
2023-05-19T21:39:23.954Z,92.90
2023-05-19T21:42:09.798Z,92.90
2023-05-19T21:44:55.944Z,93.00
2023-05-19T21:47:42.064Z,92.90
2023-05-19T21:50:28.730Z,93.10
2023-05-19T21:53:14.714Z,92.80
2023-05-19T21:56:01.103Z,93.00
2023-05-19T21:58:47.116Z,93.00
2023-05-19T22:01:33.023Z,93.00
2023-05-19T22:04:21.058Z,93.10
2023-05-19T22:07:07.547Z,93.00
2023-05-19T22:09:53.965Z,93.10
2023-05-19T22:12:40.156Z,93.10
2023-05-19T22:15:26.736Z,93.00
2023-05-19T22:18:13.047Z,93.10
2023-05-19T22:20:59.201Z,93.00
2023-05-19T22:23:45.558Z,93.00
2023-05-19T22:26:31.800Z,93.00
2023-05-19T22:29:18.607Z,93.00
2023-05-19T22:32:11.763Z,93.00
2023-05-19T22:34:58.089Z,92.80
2023-05-19T22:37:43.913Z,93.00
2023-05-19T22:40:29.847Z,93.00
2023-05-19T22:43:16.321Z,93.30
2023-05-19T22:46:02.341Z,93.30
2023-05-19T22:48:48.283Z,93.50
2023-05-19T22:51:34.198Z,93.60
2023-05-19T22:54:20.047Z,93.70
2023-05-19T22:57:06.454Z,93.60
2023-05-19T22:59:52.539Z,93.70
2023-05-19T23:02:38.473Z,93.80
2023-05-19T23:05:25.419Z,93.80
2023-05-19T23:08:11.354Z,94.00
2023-05-19T23:11:00.927Z,94.00
2023-05-19T23:13:46.807Z,94.10
2023-05-19T23:16:32.687Z,94.20
2023-05-19T23:19:20.380Z,94.30
2023-05-19T23:22:06.685Z,94.50
2023-05-19T23:24:52.538Z,94.50
2023-05-19T23:27:38.442Z,94.60
2023-05-19T23:30:24.454Z,94.70
2023-05-19T23:33:10.308Z,94.80
2023-05-19T23:35:56.738Z,94.80
2023-05-19T23:38:43.333Z,94.80
2023-05-19T23:41:29.678Z,94.90
2023-05-19T23:44:15.680Z,94.90
2023-05-19T23:47:01.696Z,95.10
2023-05-19T23:49:48.674Z,95.10
2023-05-19T23:52:34.966Z,95.40
2023-05-19T23:55:21.371Z,95.40
2023-05-19T23:58:07.296Z,95.70
